Rhapsody Of The Seas — C6UA2 — position and weather

sailwx.info

Track history (hours):
 
Tides and Currents Weather Stations Pressure Air Temp Water Temp Dewpoint Dewpoint Depression Visibility Wind Speed Wind Dir Waves Ship Positions

Rhapsody Of The Seas

Last reported at 2017-May-24 18:47 UTC. Time now 2017-May-25 03:01 UTC.
Position N 36°17' E 023°55'.

Type: Passenger vessel. MMSI: 311805000.

Date/timePositionNaut miles runAvg speedWind from/ knotsBaromVisibWave heightAir tempDewpointWater temp
2017-May-24 18:47N 36°17' E 023°55'515.9
2017-May-24 18:29N 36°18' E 024°01'815.8
2017-May-24 18:00N 36°18' E 024°11'1015.7
2017-May-24 17:24N 36°19' E 024°22'  
2017-May-20 19:36N 44°38' E 013°32'221.0
2017-May-20 19:30N 44°40' E 013°31'1121.0
2017-May-20 19:00N 44°49' E 013°23'1020.9
2017-May-20 18:30N 44°57' E 013°14'1021.0
2017-May-20 18:01N 45°05' E 013°04'1020.8
2017-May-20 17:30N 45°11' E 012°52'1020.8
2017-May-20 17:00N 45°17' E 012°40'1019.2
2017-May-20 16:30N 45°23' E 012°29'510.7
2017-May-20 16:01N 45°26' E 012°23'3 5.3
2017-May-20 15:30N 45°26' E 012°19'1 1.2
2017-May-20 15:00N 45°26' E 012°18'0 0.0
2017-May-20 14:30N 45°26' E 012°18'0 0.0
2017-May-20 13:30N 45°26' E 012°18'0 0.0
2017-May-20 13:00N 45°26' E 012°18'0 0.0
2017-May-20 12:30N 45°26' E 012°18'0 0.0
2017-May-20 12:00N 45°26' E 012°18'0 0.0
2017-May-20 11:30N 45°26' E 012°18'0 0.0
2017-May-20 11:00N 45°26' E 012°18'0 0.0
2017-May-20 10:30N 45°26' E 012°18'0 0.0
2017-May-20 10:00N 45°26' E 012°18'0 0.0
2017-May-20 09:30N 45°26' E 012°18'0 0.0
2017-May-20 09:00N 45°26' E 012°18'0 0.0
2017-May-20 08:30N 45°26' E 012°18'0 0.0
2017-May-20 08:00N 45°26' E 012°18'0 0.0
2017-May-20 07:30N 45°26' E 012°18'0 0.0
2017-May-20 07:00N 45°26' E 012°18'0 0.0
2017-May-20 06:30N 45°26' E 012°18'0 0.0
2017-May-20 06:00N 45°26' E 012°18'0 0.0
2017-May-20 05:30N 45°26' E 012°18'0 0.0
2017-May-20 05:00N 45°26' E 012°18'0 0.0
2017-May-20 04:30N 45°26' E 012°18'0 0.8
2017-May-20 04:01N 45°26' E 012°18'3 5.2
2017-May-20 03:30N 45°25' E 012°22'4 8.5
2017-May-20 03:00N 45°24' E 012°28'815.4
2017-May-20 02:30N 45°20' E 012°37'816.0
2017-May-20 02:00N 45°14' E 012°45'816.0
2017-May-20 01:30N 45°10' E 012°54'917.1
2017-May-20 01:00N 45°05' E 013°05'816.7
2017-May-20 00:30N 45°01' E 013°15'816.8
2017-May-20 00:00N 44°56' E 013°24'918.0
2017-May-19 23:30N 44°48' E 013°30'917.7
2017-May-19 23:00N 44°41' E 013°37'917.7
2017-May-19 22:30N 44°33' E 013°44'917.5
2017-May-19 22:00N 44°25' E 013°50'917.7
2017-May-19 21:30N 44°18' E 013°56'1121.2
2017-May-19 21:00N 44°09' E 014°04'1121.1
2017-May-19 20:30N 44°00' E 014°13'1121.2
2017-May-19 20:00N 43°52' E 014°21'32218.0
2017-May-19 02:05N 39°27' E 018°27'318.5
2017-May-19 01:54N 39°25' E 018°24'2425.9
2017-May-19 01:00N 39°06' E 018°06'159 7.8 280 / 81016.0 18.014.8
2017-May-18 04:39N 37°37' E 015°17'816.4
2017-May-18 04:11N 37°45' E 015°21'616.5
2017-May-18 03:48N 37°50' E 015°25'516.4
2017-May-18 03:30N 37°55' E 015°27'816.5
2017-May-18 03:00N 38°02' E 015°31'816.6
2017-May-18 02:30N 38°10' E 015°35'816.5
2017-May-18 02:00N 38°17' E 015°41'816.5
2017-May-18 01:30N 38°25' E 015°41'917.2
2017-May-18 00:59N 38°33' E 015°36'1017.3
2017-May-18 00:26N 38°42' E 015°32'717.2
2017-May-18 00:00N 38°49' E 015°28'1317.1
2017-May-17 23:16N 39°01' E 015°21'  
2017-May-15 16:56N 42°02' E 010°11'71 8.9
2017-May-15 09:01N 43°06' E 009°31'0 7.1
2017-May-15 09:00N 43°06' E 009°31'4 7.1
2017-May-15 08:30N 43°07' E 009°26'4 7.7
2017-May-15 07:56N 43°06' E 009°20'6 7.8
2017-May-15 07:06N 43°05' E 009°12'1 7.7
2017-May-15 06:57N 43°05' E 009°10'69 7.7
2017-May-14 22:00N 43°06' E 007°36'515.7 180 / 31016.0 17.415.216.5
2017-May-14 21:39N 43°11' E 007°37'1 6.9
2017-May-14 21:26N 43°12' E 007°35'4 8.5
2017-May-14 21:00N 43°14' E 007°31'714.7
2017-May-14 20:30N 43°18' E 007°22'510.1
2017-May-14 20:00N 43°21' E 007°17'4 7.3
2017-May-14 19:30N 43°23' E 007°12'4 7.2
2017-May-14 19:00N 43°25' E 007°08'  
Track history (hours):
 
Tides and Currents Weather Stations Pressure Air Temp Water Temp Dewpoint Dewpoint Depression Visibility Wind Speed Wind Dir Waves Ship Positions

Rhapsody Of The Seas

Last reported at 2017-May-24 18:47 UTC. Time now 2017-May-25 03:01 UTC.
Position N 36°17' E 023°55'.

Type: Passenger vessel. MMSI: 311805000.

Date/timePositionNaut miles runAvg speedWind from/ knotsBaromVisibWave heightAir tempDewpointWater temp
2017-May-24 18:47N 36°17' E 023°55'515.9
2017-May-24 18:29N 36°18' E 024°01'815.8
2017-May-24 18:00N 36°18' E 024°11'1015.7
2017-May-24 17:24N 36°19' E 024°22'  
2017-May-20 19:36N 44°38' E 013°32'221.0
2017-May-20 19:30N 44°40' E 013°31'1121.0
2017-May-20 19:00N 44°49' E 013°23'1020.9
2017-May-20 18:30N 44°57' E 013°14'1021.0
2017-May-20 18:01N 45°05' E 013°04'1020.8
2017-May-20 17:30N 45°11' E 012°52'1020.8
2017-May-20 17:00N 45°17' E 012°40'1019.2
2017-May-20 16:30N 45°23' E 012°29'510.7
2017-May-20 16:01N 45°26' E 012°23'3 5.3
2017-May-20 15:30N 45°26' E 012°19'1 1.2
2017-May-20 15:00N 45°26' E 012°18'0 0.0
2017-May-20 14:30N 45°26' E 012°18'0 0.0
2017-May-20 13:30N 45°26' E 012°18'0 0.0
2017-May-20 13:00N 45°26' E 012°18'0 0.0
2017-May-20 12:30N 45°26' E 012°18'0 0.0
2017-May-20 12:00N 45°26' E 012°18'0 0.0
2017-May-20 11:30N 45°26' E 012°18'0 0.0
2017-May-20 11:00N 45°26' E 012°18'0 0.0
2017-May-20 10:30N 45°26' E 012°18'0 0.0
2017-May-20 10:00N 45°26' E 012°18'0 0.0
2017-May-20 09:30N 45°26' E 012°18'0 0.0
2017-May-20 09:00N 45°26' E 012°18'0 0.0
2017-May-20 08:30N 45°26' E 012°18'0 0.0
2017-May-20 08:00N 45°26' E 012°18'0 0.0
2017-May-20 07:30N 45°26' E 012°18'0 0.0
2017-May-20 07:00N 45°26' E 012°18'0 0.0
2017-May-20 06:30N 45°26' E 012°18'0 0.0
2017-May-20 06:00N 45°26' E 012°18'0 0.0
2017-May-20 05:30N 45°26' E 012°18'0 0.0
2017-May-20 05:00N 45°26' E 012°18'0 0.0
2017-May-20 04:30N 45°26' E 012°18'0 0.8
2017-May-20 04:01N 45°26' E 012°18'3 5.2
2017-May-20 03:30N 45°25' E 012°22'4 8.5
2017-May-20 03:00N 45°24' E 012°28'815.4
2017-May-20 02:30N 45°20' E 012°37'816.0
2017-May-20 02:00N 45°14' E 012°45'816.0
2017-May-20 01:30N 45°10' E 012°54'917.1
2017-May-20 01:00N 45°05' E 013°05'816.7
2017-May-20 00:30N 45°01' E 013°15'816.8
2017-May-20 00:00N 44°56' E 013°24'918.0
2017-May-19 23:30N 44°48' E 013°30'917.7
2017-May-19 23:00N 44°41' E 013°37'917.7
2017-May-19 22:30N 44°33' E 013°44'917.5
2017-May-19 22:00N 44°25' E 013°50'917.7
2017-May-19 21:30N 44°18' E 013°56'1121.2
2017-May-19 21:00N 44°09' E 014°04'1121.1
2017-May-19 20:30N 44°00' E 014°13'1121.2
2017-May-19 20:00N 43°52' E 014°21'32218.0
2017-May-19 02:05N 39°27' E 018°27'318.5
2017-May-19 01:54N 39°25' E 018°24'2425.9
2017-May-19 01:00N 39°06' E 018°06'159 7.8 280 / 81016.0 18.014.8
2017-May-18 04:39N 37°37' E 015°17'816.4
2017-May-18 04:11N 37°45' E 015°21'616.5
2017-May-18 03:48N 37°50' E 015°25'516.4
2017-May-18 03:30N 37°55' E 015°27'816.5
2017-May-18 03:00N 38°02' E 015°31'816.6
2017-May-18 02:30N 38°10' E 015°35'816.5
2017-May-18 02:00N 38°17' E 015°41'816.5
2017-May-18 01:30N 38°25' E 015°41'917.2
2017-May-18 00:59N 38°33' E 015°36'1017.3
2017-May-18 00:26N 38°42' E 015°32'717.2
2017-May-18 00:00N 38°49' E 015°28'1317.1
2017-May-17 23:16N 39°01' E 015°21'  
2017-May-15 16:56N 42°02' E 010°11'71 8.9
2017-May-15 09:01N 43°06' E 009°31'0 7.1
2017-May-15 09:00N 43°06' E 009°31'4 7.1
2017-May-15 08:30N 43°07' E 009°26'4 7.7
2017-May-15 07:56N 43°06' E 009°20'6 7.8
2017-May-15 07:06N 43°05' E 009°12'1 7.7
2017-May-15 06:57N 43°05' E 009°10'69 7.7
2017-May-14 22:00N 43°06' E 007°36'515.7 180 / 31016.0 17.415.216.5
2017-May-14 21:39N 43°11' E 007°37'1 6.9
2017-May-14 21:26N 43°12' E 007°35'4 8.5
2017-May-14 21:00N 43°14' E 007°31'714.7
2017-May-14 20:30N 43°18' E 007°22'510.1
2017-May-14 20:00N 43°21' E 007°17'4 7.3
2017-May-14 19:30N 43°23' E 007°12'4 7.2
2017-May-14 19:00N 43°25' E 007°08'  

Dump ship's entire track history